Time;durP1;ratioP1;P1;durP2;ratioP2;P2;SDS_P1;SDS_P2;PMS_P1;PMS_P2;Temp;Humidity;BMP_temperature;BMP_pressure;BME280_temperature;BME280_humidity;BME280_pressure;Samples;Min_cycle;Max_cycle;Signal;HPM_P1;HPM_P2
2024/02/21 00:01:24;;;;;;;;;26.00;24.50;;;;;;;;5088758;28;10829;-83
2024/02/21 00:03:51;;;;;;;;;20.50;19.25;;;;;;;;5091181;28;10910;-80
2024/02/21 00:06:19;;;;;;;;;27.25;23.50;;;;;;;;5088526;28;11502;-84
2024/02/21 00:08:46;;;;;;;;;27.25;24.50;;;;;;;;5088817;28;11730;-84
2024/02/21 00:11:13;;;;;;;;;26.25;24.50;;;;;;;;5090714;28;10882;-84
2024/02/21 00:13:41;;;;;;;;;24.25;23.75;;;;;;;;5095594;28;10811;-84
2024/02/21 00:16:08;;;;;;;;;27.00;25.75;;;;;;;;5095835;28;10945;-84
2024/02/21 00:18:36;;;;;;;;;25.00;24.50;;;;;;;;5107764;28;10890;-84
2024/02/21 00:21:04;;;;;;;;;25.00;23.00;;;;;;;;5093364;28;10815;-84
2024/02/21 00:23:31;;;;;;;;;22.75;21.75;;;;;;;;5095306;28;10917;-81
2024/02/21 00:25:58;;;;;;;;;22.00;22.00;;;;;;;;5095130;28;10857;-83
2024/02/21 00:28:25;;;;;;;;;21.75;20.50;;;;;;;;5095764;28;10619;-83
2024/02/21 00:30:54;;;;;;;;;23.25;23.25;;;;;;;;5095038;28;10658;-83
2024/02/21 00:33:21;;;;;;;;;26.75;22.50;;;;;;;;5094601;28;10661;-81
2024/02/21 00:35:50;;;;;;;;;24.50;24.50;;;;;;;;5094777;28;11372;-81
2024/02/21 00:38:17;;;;;;;;;27.50;24.00;;;;;;;;5094954;28;10926;-82
2024/02/21 00:40:44;;;;;;;;;28.75;27.25;;;;;;;;5095057;28;10882;-82
2024/02/21 00:43:11;;;;;;;;;27.75;26.00;;;;;;;;5094752;28;10672;-83
2024/02/21 00:45:39;;;;;;;;;28.25;28.25;;;;;;;;5093732;28;10789;-83
2024/02/21 00:48:09;;;;;;;;;25.75;22.50;;;;;;;;5097016;28;10805;-81
2024/02/21 00:50:37;;;;;;;;;23.50;22.00;;;;;;;;5087287;28;10827;-81
2024/02/21 00:53:06;;;;;;;;;20.75;18.75;;;;;;;;5095088;28;10753;-81
2024/02/21 00:55:33;;;;;;;;;26.75;24.75;;;;;;;;5094243;28;10801;-81
2024/02/21 00:58:00;;;;;;;;;23.25;21.25;;;;;;;;5095042;28;10912;-81
2024/02/21 01:00:28;;;;;;;;;24.25;22.00;;;;;;;;5094898;28;10623;-80
2024/02/21 01:02:55;;;;;;;;;25.50;21.25;;;;;;;;5096558;28;10728;-81
2024/02/21 01:05:22;;;;;;;;;27.50;25.00;;;;;;;;5095727;28;10739;-82
2024/02/21 01:07:50;;;;;;;;;25.25;23.50;;;;;;;;5099226;28;10852;-82
2024/02/21 01:10:18;;;;;;;;;24.75;22.50;;;;;;;;5097968;28;10719;-82
2024/02/21 01:12:45;;;;;;;;;25.50;20.50;;;;;;;;5100326;28;10699;-81
2024/02/21 01:15:13;;;;;;;;;30.50;23.00;;;;;;;;5098342;28;10683;-81
2024/02/21 01:17:40;;;;;;;;;30.50;24.75;;;;;;;;5098085;28;10832;-84
2024/02/21 01:20:08;;;;;;;;;25.50;20.00;;;;;;;;5092846;28;10786;-81
2024/02/21 01:22:35;;;;;;;;;29.25;25.25;;;;;;;;5092513;28;10779;-83
2024/02/21 01:25:03;;;;;;;;;25.50;25.00;;;;;;;;5091015;28;10891;-83
2024/02/21 01:27:39;;;;;;;;;26.25;22.25;;;;;;;;5091701;28;10777;-83
2024/02/21 01:30:07;;;;;;;;;27.75;24.75;;;;;;;;5082892;28;10830;-83
2024/02/21 01:32:35;;;;;;;;;30.00;30.00;;;;;;;;5091630;28;10656;-83
2024/02/21 01:35:02;;;;;;;;;28.00;28.00;;;;;;;;5091423;28;10978;-80
2024/02/21 01:37:29;;;;;;;;;33.25;28.00;;;;;;;;5091701;28;10764;-82
2024/02/21 01:40:02;;;;;;;;;24.50;24.50;;;;;;;;5091259;28;10889;-83
2024/02/21 01:42:34;;;;;;;;;28.75;24.25;;;;;;;;5089184;28;10867;-81
2024/02/21 01:45:02;;;;;;;;;20.50;20.00;;;;;;;;5090520;28;10843;-81
2024/02/21 01:47:29;;;;;;;;;22.75;21.25;;;;;;;;5073229;28;10668;-83
2024/02/21 01:49:56;;;;;;;;;26.50;26.00;;;;;;;;5082965;28;10650;-83
2024/02/21 01:52:24;;;;;;;;;28.50;25.00;;;;;;;;5074227;28;10713;-82
2024/02/21 01:54:51;;;;;;;;;25.75;24.00;;;;;;;;5089977;28;10656;-84
2024/02/21 01:57:18;;;;;;;;;29.00;25.25;;;;;;;;5090339;28;11548;-80
2024/02/21 01:59:47;;;;;;;;;24.75;21.50;;;;;;;;5089675;28;10780;-82
2024/02/21 02:02:16;;;;;;;;;34.00;31.75;;;;;;;;5089698;28;10814;-82
2024/02/21 02:04:44;;;;;;;;;25.00;24.25;;;;;;;;5090896;28;10861;-82
2024/02/21 02:07:11;;;;;;;;;28.00;28.00;;;;;;;;5090642;28;10815;-83
2024/02/21 02:09:38;;;;;;;;;30.25;30.25;;;;;;;;5090262;28;11024;-83
2024/02/21 02:12:06;;;;;;;;;27.50;25.50;;;;;;;;5091715;28;11141;-83
2024/02/21 02:14:34;;;;;;;;;25.50;25.50;;;;;;;;5092448;28;11420;-83
2024/02/21 02:17:04;;;;;;;;;26.75;26.75;;;;;;;;5093676;28;11072;-81
2024/02/21 02:19:31;;;;;;;;;29.25;27.25;;;;;;;;5103898;28;11176;-79
2024/02/21 02:22:08;;;;;;;;;28.75;25.25;;;;;;;;5099758;28;11100;-82
2024/02/21 02:24:37;;;;;;;;;26.75;24.50;;;;;;;;5088952;28;10978;-83
2024/02/21 02:27:04;;;;;;;;;29.00;24.75;;;;;;;;5090227;28;10980;-81
2024/02/21 02:29:33;;;;;;;;;26.50;25.50;;;;;;;;5090438;28;10978;-81
2024/02/21 02:32:01;;;;;;;;;27.00;25.75;;;;;;;;5078933;28;10830;-83
2024/02/21 02:34:30;;;;;;;;;25.75;24.50;;;;;;;;5088884;28;10885;-82
2024/02/21 02:36:58;;;;;;;;;30.00;25.00;;;;;;;;5072861;28;10814;-81
2024/02/21 02:39:25;;;;;;;;;25.00;23.50;;;;;;;;5080693;28;10831;-83
2024/02/21 02:41:53;;;;;;;;;23.00;18.00;;;;;;;;5089901;28;11063;-81
2024/02/21 02:44:21;;;;;;;;;32.00;23.00;;;;;;;;5090171;28;10885;-81
2024/02/21 02:46:48;;;;;;;;;26.50;24.25;;;;;;;;5091019;28;10942;-80
2024/02/21 02:49:15;;;;;;;;;22.25;22.25;;;;;;;;5091660;28;11096;-81
2024/02/21 02:51:43;;;;;;;;;20.00;19.00;;;;;;;;5089976;28;11163;-82
2024/02/21 02:54:11;;;;;;;;;30.00;28.00;;;;;;;;5094653;28;11036;-81
2024/02/21 02:56:38;;;;;;;;;29.75;24.25;;;;;;;;5094607;28;11140;-82
2024/02/21 02:59:07;;;;;;;;;27.25;21.75;;;;;;;;5093206;28;11007;-80
2024/02/21 03:01:36;;;;;;;;;28.50;25.25;;;;;;;;5095945;28;10925;-80
2024/02/21 03:04:03;;;;;;;;;24.50;21.00;;;;;;;;5096413;28;11063;-80
2024/02/21 03:06:30;;;;;;;;;24.00;21.00;;;;;;;;5093803;28;11004;-81
2024/02/21 03:08:58;;;;;;;;;26.50;23.25;;;;;;;;5090694;28;11068;-80
2024/02/21 03:11:28;;;;;;;;;22.25;18.75;;;;;;;;5091639;28;10853;-81
2024/02/21 03:13:56;;;;;;;;;36.25;31.75;;;;;;;;5093452;28;11024;-82
2024/02/21 03:16:25;;;;;;;;;18.75;18.75;;;;;;;;5094423;28;11289;-83
2024/02/21 03:18:53;;;;;;;;;24.00;22.25;;;;;;;;5089056;28;11934;-83
2024/02/21 03:21:20;;;;;;;;;17.50;13.00;;;;;;;;5088882;28;11259;-83
2024/02/21 03:23:47;;;;;;;;;27.00;20.75;;;;;;;;5087603;28;11210;-83
2024/02/21 03:26:17;;;;;;;;;21.25;21.25;;;;;;;;5088528;28;11823;-79
2024/02/21 03:28:46;;;;;;;;;19.75;15.50;;;;;;;;5089105;28;11310;-82
2024/02/21 03:31:14;;;;;;;;;17.00;17.00;;;;;;;;5088628;28;10766;-82
2024/02/21 03:33:43;;;;;;;;;22.50;21.25;;;;;;;;5088926;28;10863;-82
2024/02/21 03:36:15;;;;;;;;;21.25;18.75;;;;;;;;5088118;28;10962;-83
2024/02/21 03:38:42;;;;;;;;;22.00;20.25;;;;;;;;5088636;28;10955;-82
2024/02/21 03:41:09;;;;;;;;;20.00;20.00;;;;;;;;5088094;28;10861;-81
2024/02/21 03:43:38;;;;;;;;;16.50;15.00;;;;;;;;5089775;28;11020;-80
2024/02/21 03:46:05;;;;;;;;;16.00;16.00;;;;;;;;5090333;28;11635;-81
2024/02/21 03:48:32;;;;;;;;;15.75;13.50;;;;;;;;5098055;28;11536;-81
2024/02/21 03:51:04;;;;;;;;;19.25;16.25;;;;;;;;5089018;28;10928;-79
2024/02/21 03:53:33;;;;;;;;;22.50;17.75;;;;;;;;5089274;28;10686;-83
2024/02/21 03:56:03;;;;;;;;;16.50;16.50;;;;;;;;5088383;28;10905;-81
2024/02/21 03:58:31;;;;;;;;;21.25;18.50;;;;;;;;5087887;28;10772;-83
2024/02/21 04:00:58;;;;;;;;;24.75;23.25;;;;;;;;5088801;28;10657;-80
2024/02/21 04:03:25;;;;;;;;;17.50;17.50;;;;;;;;5090449;28;10814;-80
2024/02/21 04:05:52;;;;;;;;;15.25;15.25;;;;;;;;5089840;28;10735;-82
2024/02/21 04:08:21;;;;;;;;;19.00;16.75;;;;;;;;5089703;28;10682;-82
2024/02/21 04:10:49;;;;;;;;;12.50;12.00;;;;;;;;5086324;28;10796;-80
2024/02/21 04:13:16;;;;;;;;;18.00;18.00;;;;;;;;5088751;28;10752;-81
2024/02/21 04:15:43;;;;;;;;;16.75;15.75;;;;;;;;5088599;28;10685;-80
2024/02/21 04:18:10;;;;;;;;;23.75;22.00;;;;;;;;5088334;28;10726;-81
2024/02/21 04:20:38;;;;;;;;;17.25;15.25;;;;;;;;5088270;28;10647;-81
2024/02/21 04:23:08;;;;;;;;;17.75;15.00;;;;;;;;5089086;28;10635;-80
2024/02/21 04:25:41;;;;;;;;;19.75;16.00;;;;;;;;5089148;28;10821;-82
2024/02/21 04:28:08;;;;;;;;;16.75;15.50;;;;;;;;5089139;28;10691;-80
2024/02/21 04:30:35;;;;;;;;;16.00;15.25;;;;;;;;5088294;28;10545;-81
2024/02/21 04:33:02;;;;;;;;;19.50;17.25;;;;;;;;5089295;28;10822;-79
2024/02/21 04:35:30;;;;;;;;;24.00;19.00;;;;;;;;5079756;28;10465;-82
2024/02/21 04:37:57;;;;;;;;;18.00;16.25;;;;;;;;5093026;28;10601;-81
2024/02/21 04:40:24;;;;;;;;;15.25;15.25;;;;;;;;5092350;28;10653;-80
2024/02/21 04:42:53;;;;;;;;;14.25;13.00;;;;;;;;5094273;28;10741;-81
2024/02/21 04:45:20;;;;;;;;;15.00;12.25;;;;;;;;5094580;28;10548;-81
2024/02/21 04:47:47;;;;;;;;;17.00;15.75;;;;;;;;5084854;28;10644;-80
2024/02/21 04:50:14;;;;;;;;;19.00;16.00;;;;;;;;5092111;28;10761;-80
2024/02/21 04:52:42;;;;;;;;;19.00;16.25;;;;;;;;5091648;28;11401;-81
2024/02/21 04:55:09;;;;;;;;;13.75;13.75;;;;;;;;5091357;28;10584;-79
2024/02/21 04:57:36;;;;;;;;;18.00;17.00;;;;;;;;5088446;28;10693;-78
2024/02/21 05:00:06;;;;;;;;;23.00;18.25;;;;;;;;5096530;28;10652;-82
2024/02/21 05:02:41;;;;;;;;;13.00;11.25;;;;;;;;5090508;28;10431;-82
2024/02/21 05:05:09;;;;;;;;;19.25;18.50;;;;;;;;5109911;28;11308;-80
2024/02/21 05:07:38;;;;;;;;;15.75;15.50;;;;;;;;5087706;28;10542;-79
2024/02/21 05:10:09;;;;;;;;;13.75;13.00;;;;;;;;5085876;28;10546;-83
2024/02/21 05:12:36;;;;;;;;;16.50;16.25;;;;;;;;5091591;28;10529;-83
2024/02/21 05:15:06;;;;;;;;;15.75;14.75;;;;;;;;5089700;28;10659;-81
2024/02/21 05:17:33;;;;;;;;;12.25;12.25;;;;;;;;5091556;28;10467;-86
2024/02/21 05:20:00;;;;;;;;;21.50;20.50;;;;;;;;5092664;28;10703;-81
2024/02/21 05:22:28;;;;;;;;;15.75;14.75;;;;;;;;5091687;28;10674;-80
2024/02/21 05:24:55;;;;;;;;;15.75;15.75;;;;;;;;5092587;28;10788;-82
2024/02/21 05:27:22;;;;;;;;;11.75;11.75;;;;;;;;5092147;28;10532;-81
2024/02/21 05:29:49;;;;;;;;;22.00;21.25;;;;;;;;5089630;28;11359;-83
2024/02/21 05:32:18;;;;;;;;;20.75;18.00;;;;;;;;5091577;28;10834;-81
2024/02/21 05:34:45;;;;;;;;;23.50;19.75;;;;;;;;5092875;28;10640;-84
2024/02/21 05:37:15;;;;;;;;;16.50;16.50;;;;;;;;5094375;28;11583;-85
2024/02/21 05:39:42;;;;;;;;;17.00;15.50;;;;;;;;5090570;28;10580;-83
2024/02/21 05:42:10;;;;;;;;;17.75;16.75;;;;;;;;5090964;28;10549;-86
2024/02/21 05:44:38;;;;;;;;;12.50;12.50;;;;;;;;5090829;28;10629;-80
2024/02/21 05:47:09;;;;;;;;;20.00;17.50;;;;;;;;5091123;28;10452;-83
2024/02/21 05:49:38;;;;;;;;;14.00;14.00;;;;;;;;5091847;28;10778;-78
2024/02/21 05:52:07;;;;;;;;;19.00;16.75;;;;;;;;5087023;28;10596;-80
2024/02/21 05:54:34;;;;;;;;;15.50;13.00;;;;;;;;5092258;28;10561;-85
2024/02/21 05:57:01;;;;;;;;;19.00;19.00;;;;;;;;5089292;28;10623;-82
2024/02/21 05:59:28;;;;;;;;;17.00;14.25;;;;;;;;5090451;28;10621;-81
2024/02/21 06:02:03;;;;;;;;;13.25;13.25;;;;;;;;5090582;28;10610;-82
2024/02/21 06:04:30;;;;;;;;;18.75;17.00;;;;;;;;5090234;28;10491;-83
2024/02/21 06:06:58;;;;;;;;;17.00;17.00;;;;;;;;5090090;28;10504;-82
2024/02/21 06:09:26;;;;;;;;;17.75;16.25;;;;;;;;5091128;28;10647;-79
2024/02/21 06:11:53;;;;;;;;;11.75;11.75;;;;;;;;5090203;28;10744;-81
2024/02/21 06:14:21;;;;;;;;;15.00;13.25;;;;;;;;5090644;28;10720;-80
2024/02/21 06:16:48;;;;;;;;;19.50;17.50;;;;;;;;5089388;28;10731;-80
2024/02/21 06:19:18;;;;;;;;;21.50;16.25;;;;;;;;5090017;28;10651;-80
2024/02/21 06:21:45;;;;;;;;;12.00;12.00;;;;;;;;5089175;28;10576;-81
2024/02/21 06:24:16;;;;;;;;;10.25;10.25;;;;;;;;5090656;28;10862;-82
2024/02/21 06:26:45;;;;;;;;;18.00;15.25;;;;;;;;5091797;28;10633;-79
2024/02/21 06:29:15;;;;;;;;;16.25;14.50;;;;;;;;5093395;28;10659;-82
2024/02/21 06:31:42;;;;;;;;;16.75;14.75;;;;;;;;5093507;28;10630;-79
2024/02/21 06:34:09;;;;;;;;;15.25;15.25;;;;;;;;5098973;28;10758;-81
2024/02/21 06:36:39;;;;;;;;;23.25;21.50;;;;;;;;5088442;28;10790;-78
2024/02/21 06:39:11;;;;;;;;;18.50;15.25;;;;;;;;5094276;28;11026;-79
2024/02/21 06:41:54;;;;;;;;;15.75;14.25;;;;;;;;5091738;28;10969;-77
2024/02/21 06:44:23;;;;;;;;;15.75;14.50;;;;;;;;5085996;28;10725;-75
2024/02/21 06:46:50;;;;;;;;;17.25;15.25;;;;;;;;5089573;28;10819;-76
2024/02/21 06:49:17;;;;;;;;;11.00;11.00;;;;;;;;5088792;28;10857;-77
2024/02/21 06:51:44;;;;;;;;;14.25;14.25;;;;;;;;5089019;28;10852;-78
2024/02/21 06:54:14;;;;;;;;;16.25;13.75;;;;;;;;5088973;28;11557;-77
2024/02/21 06:56:46;;;;;;;;;18.00;15.00;;;;;;;;5088713;28;10691;-78
2024/02/21 06:59:16;;;;;;;;;14.50;12.75;;;;;;;;5087971;28;10933;-75
2024/02/21 07:01:48;;;;;;;;;15.75;12.25;;;;;;;;5088029;28;10835;-79
2024/02/21 07:04:15;;;;;;;;;17.50;15.50;;;;;;;;5088601;28;11028;-76
2024/02/21 07:06:42;;;;;;;;;15.00;15.00;;;;;;;;5088540;28;11166;-74
2024/02/21 07:09:10;;;;;;;;;12.25;12.25;;;;;;;;5087329;28;11031;-76
2024/02/21 07:11:37;;;;;;;;;15.25;14.00;;;;;;;;5089267;28;11752;-76
2024/02/21 07:14:04;;;;;;;;;19.25;14.25;;;;;;;;5089644;28;11277;-78
2024/02/21 07:16:33;;;;;;;;;16.25;16.00;;;;;;;;5089073;28;10930;-76
2024/02/21 07:19:03;;;;;;;;;12.25;12.00;;;;;;;;5090312;28;11127;-78
2024/02/21 07:21:30;;;;;;;;;18.25;15.75;;;;;;;;5087678;28;10902;-76
2024/02/21 07:23:58;;;;;;;;;12.25;12.25;;;;;;;;5089172;28;10952;-77
2024/02/21 07:26:28;;;;;;;;;15.25;15.25;;;;;;;;5087766;28;10951;-77
2024/02/21 07:28:55;;;;;;;;;14.00;14.00;;;;;;;;5088276;28;11129;-77
2024/02/21 07:31:22;;;;;;;;;10.75;10.75;;;;;;;;5087107;28;10804;-78
2024/02/21 07:33:53;;;;;;;;;17.75;15.00;;;;;;;;5088224;28;11030;-76
2024/02/21 07:36:31;;;;;;;;;17.75;13.50;;;;;;;;5088262;28;11021;-77
2024/02/21 07:39:01;;;;;;;;;16.50;15.00;;;;;;;;5088416;28;11184;-79
2024/02/21 07:41:30;;;;;;;;;15.25;15.25;;;;;;;;5087716;28;11145;-79
2024/02/21 07:43:58;;;;;;;;;15.25;14.00;;;;;;;;5087769;28;10959;-77
2024/02/21 07:46:28;;;;;;;;;15.00;14.50;;;;;;;;5087694;28;11043;-78
2024/02/21 07:48:56;;;;;;;;;17.25;15.50;;;;;;;;5087738;28;11155;-77
2024/02/21 07:51:23;;;;;;;;;18.25;12.25;;;;;;;;5087847;28;11121;-77
2024/02/21 07:53:51;;;;;;;;;15.00;13.00;;;;;;;;5086807;28;10957;-77
2024/02/21 07:56:18;;;;;;;;;17.50;16.75;;;;;;;;5085420;28;11006;-79
2024/02/21 07:58:45;;;;;;;;;16.75;16.75;;;;;;;;5085195;28;11085;-79
2024/02/21 08:01:13;;;;;;;;;15.25;15.25;;;;;;;;5087452;28;11073;-77
2024/02/21 08:03:40;;;;;;;;;16.25;14.00;;;;;;;;5088000;28;11120;-77
2024/02/21 08:06:13;;;;;;;;;16.75;13.75;;;;;;;;5075601;28;10835;-79
2024/02/21 08:08:40;;;;;;;;;15.50;13.00;;;;;;;;5088647;28;10980;-77
2024/02/21 08:11:08;;;;;;;;;20.75;13.75;;;;;;;;5088140;28;11793;-80
2024/02/21 08:13:35;;;;;;;;;17.75;14.25;;;;;;;;5088113;28;11059;-81
2024/02/21 08:16:03;;;;;;;;;15.00;13.25;;;;;;;;5088690;28;11046;-80
2024/02/21 08:18:30;;;;;;;;;12.25;12.25;;;;;;;;5090303;28;10860;-81
2024/02/21 08:21:01;;;;;;;;;10.25;10.25;;;;;;;;5092351;28;10888;-79
2024/02/21 08:23:30;;;;;;;;;13.50;11.50;;;;;;;;5092774;28;10890;-82
2024/02/21 08:25:57;;;;;;;;;13.75;13.00;;;;;;;;5091013;28;10828;-78
2024/02/21 08:28:26;;;;;;;;;12.50;11.00;;;;;;;;5092178;28;10983;-79
2024/02/21 08:30:54;;;;;;;;;11.75;11.75;;;;;;;;5102338;28;10865;-76
2024/02/21 08:33:24;;;;;;;;;14.75;14.75;;;;;;;;5093701;28;10734;-78
2024/02/21 08:35:52;;;;;;;;;17.25;11.75;;;;;;;;5091937;28;10893;-79
2024/02/21 08:38:19;;;;;;;;;12.25;12.25;;;;;;;;5090812;28;10813;-76
2024/02/21 08:40:48;;;;;;;;;13.25;12.50;;;;;;;;5091287;28;10787;-77
2024/02/21 08:43:15;;;;;;;;;10.00;8.25;;;;;;;;5091132;28;10853;-77
2024/02/21 08:45:43;;;;;;;;;12.50;11.00;;;;;;;;5089013;28;10775;-76
2024/02/21 08:48:12;;;;;;;;;11.00;11.00;;;;;;;;5091628;28;10865;-76
2024/02/21 08:50:39;;;;;;;;;9.00;9.00;;;;;;;;5091190;28;10798;-76
2024/02/21 08:53:06;;;;;;;;;13.00;13.00;;;;;;;;5091423;28;11557;-75
2024/02/21 08:55:35;;;;;;;;;15.00;10.50;;;;;;;;5091077;28;11488;-76
2024/02/21 08:58:04;;;;;;;;;12.25;12.25;;;;;;;;5089519;28;10561;-77
2024/02/21 09:00:31;;;;;;;;;13.25;13.25;;;;;;;;5090122;28;10633;-77
2024/02/21 09:02:58;;;;;;;;;16.75;15.00;;;;;;;;5092317;28;11600;-76
2024/02/21 09:05:27;;;;;;;;;13.25;11.00;;;;;;;;5091209;28;11634;-76
2024/02/21 09:07:54;;;;;;;;;11.75;11.75;;;;;;;;5091539;28;11386;-75
2024/02/21 09:10:22;;;;;;;;;14.25;12.25;;;;;;;;5090638;28;10668;-77
2024/02/21 09:12:49;;;;;;;;;12.00;12.00;;;;;;;;5089151;28;10798;-78
2024/02/21 09:15:18;;;;;;;;;15.50;11.00;;;;;;;;5090794;28;10639;-79
2024/02/21 09:17:45;;;;;;;;;8.75;8.75;;;;;;;;5090811;28;10744;-75
2024/02/21 09:20:15;;;;;;;;;12.00;12.00;;;;;;;;5090337;28;10547;-76
2024/02/21 09:22:43;;;;;;;;;12.50;10.75;;;;;;;;5090217;28;10510;-77
2024/02/21 09:25:13;;;;;;;;;16.00;13.50;;;;;;;;5090806;28;10532;-76
2024/02/21 09:27:40;;;;;;;;;18.00;15.25;;;;;;;;5090458;28;10605;-78
2024/02/21 09:30:08;;;;;;;;;11.50;11.50;;;;;;;;5087630;28;10535;-78
2024/02/21 09:32:37;;;;;;;;;12.75;10.50;;;;;;;;5090564;28;10631;-79
2024/02/21 09:35:05;;;;;;;;;13.00;13.00;;;;;;;;5088832;28;10609;-76
2024/02/21 09:37:33;;;;;;;;;17.00;13.25;;;;;;;;5089792;28;10680;-77
2024/02/21 09:40:00;;;;;;;;;11.50;11.25;;;;;;;;5090470;28;10607;-78
2024/02/21 09:42:35;;;;;;;;;12.25;11.25;;;;;;;;5089878;28;10639;-78
2024/02/21 09:45:04;;;;;;;;;11.25;11.25;;;;;;;;5089830;28;10587;-76
2024/02/21 09:47:39;;;;;;;;;9.50;9.50;;;;;;;;5089669;28;10577;-77
2024/02/21 09:50:07;;;;;;;;;11.75;10.50;;;;;;;;5090465;28;10409;-78
2024/02/21 09:52:34;;;;;;;;;16.00;13.25;;;;;;;;5089711;28;10402;-77
2024/02/21 09:55:04;;;;;;;;;13.00;11.25;;;;;;;;5090417;28;10521;-78
2024/02/21 09:57:32;;;;;;;;;14.50;14.00;;;;;;;;5088258;28;10433;-76
2024/02/21 10:00:07;;;;;;;;;15.00;13.25;;;;;;;;5090531;28;10387;-76
2024/02/21 10:02:34;;;;;;;;;14.50;11.00;;;;;;;;5089944;28;10205;-77
2024/02/21 10:05:04;;;;;;;;;14.75;14.75;;;;;;;;5091270;28;10435;-76
2024/02/21 10:07:32;;;;;;;;;17.50;13.00;;;;;;;;5091551;28;10119;-76
2024/02/21 10:10:03;;;;;;;;;13.75;11.00;;;;;;;;5091676;28;10261;-77
2024/02/21 10:12:30;;;;;;;;;15.75;11.25;;;;;;;;5091579;28;10196;-76
2024/02/21 10:15:02;;;;;;;;;12.75;10.00;;;;;;;;5087553;28;10107;-76
2024/02/21 10:17:29;;;;;;;;;12.50;10.00;;;;;;;;5088597;28;10233;-76
2024/02/21 10:19:56;;;;;;;;;12.00;11.25;;;;;;;;5094193;28;10089;-77
2024/02/21 10:22:26;;;;;;;;;14.75;13.00;;;;;;;;5093500;28;10173;-74
2024/02/21 10:24:54;;;;;;;;;11.25;11.25;;;;;;;;5090125;28;10069;-75
2024/02/21 10:27:25;;;;;;;;;9.00;9.00;;;;;;;;5089741;28;10153;-76
2024/02/21 10:29:52;;;;;;;;;12.25;12.00;;;;;;;;5089481;28;9991;-76
2024/02/21 10:32:19;;;;;;;;;11.00;8.00;;;;;;;;5088934;28;9962;-76
2024/02/21 10:34:51;;;;;;;;;12.00;12.00;;;;;;;;5087522;28;10008;-75
2024/02/21 10:37:18;;;;;;;;;13.00;13.00;;;;;;;;5089227;28;9964;-78
2024/02/21 10:39:47;;;;;;;;;14.50;12.00;;;;;;;;5099665;28;10040;-77
2024/02/21 10:42:17;;;;;;;;;13.00;13.00;;;;;;;;5089585;28;9932;-76
2024/02/21 10:44:44;;;;;;;;;11.00;11.00;;;;;;;;5088814;28;10875;-76
2024/02/21 10:47:14;;;;;;;;;16.00;11.75;;;;;;;;5090064;28;9942;-77
2024/02/21 10:49:47;;;;;;;;;14.00;13.25;;;;;;;;5089706;28;10845;-77
2024/02/21 10:52:16;;;;;;;;;11.00;11.00;;;;;;;;5091479;28;10062;-77
2024/02/21 10:54:50;;;;;;;;;9.50;9.50;;;;;;;;5091404;28;9764;-77
2024/02/21 10:57:18;;;;;;;;;11.00;8.25;;;;;;;;5089152;28;9893;-77
2024/02/21 10:59:46;;;;;;;;;9.75;9.75;;;;;;;;5088753;28;9644;-78
2024/02/21 11:02:14;;;;;;;;;12.25;12.25;;;;;;;;5087515;28;9836;-78
2024/02/21 11:04:42;;;;;;;;;13.00;13.00;;;;;;;;5088461;28;9893;-77
2024/02/21 11:07:10;;;;;;;;;11.50;11.00;;;;;;;;5088447;28;9749;-78
2024/02/21 11:09:37;;;;;;;;;6.00;6.00;;;;;;;;5088794;28;9817;-79
2024/02/21 11:12:08;;;;;;;;;12.50;11.50;;;;;;;;5087905;28;10552;-79
2024/02/21 11:14:39;;;;;;;;;13.50;13.25;;;;;;;;5088542;28;9707;-78
2024/02/21 11:17:16;;;;;;;;;11.75;10.75;;;;;;;;5089224;28;9849;-78
2024/02/21 11:19:47;;;;;;;;;10.50;10.50;;;;;;;;5088635;28;9641;-75
2024/02/21 11:22:17;;;;;;;;;13.25;12.50;;;;;;;;5091461;28;9686;-76
2024/02/21 11:24:45;;;;;;;;;11.25;11.25;;;;;;;;5089529;28;9610;-76
2024/02/21 11:27:15;;;;;;;;;11.75;11.75;;;;;;;;5078467;28;9798;-76
2024/02/21 11:29:45;;;;;;;;;11.25;11.00;;;;;;;;5088134;28;9699;-79
2024/02/21 11:32:16;;;;;;;;;11.50;9.50;;;;;;;;5088353;28;9622;-76
2024/02/21 11:34:53;;;;;;;;;13.50;12.00;;;;;;;;5087944;28;9802;-78
2024/02/21 11:37:20;;;;;;;;;6.50;6.50;;;;;;;;5088879;28;9566;-78
2024/02/21 11:39:48;;;;;;;;;28.00;22.50;;;;;;;;5087426;28;9618;-76
2024/02/21 11:42:17;;;;;;;;;20.75;15.75;;;;;;;;5087949;28;10270;-75
2024/02/21 11:44:47;;;;;;;;;17.75;16.00;;;;;;;;5086171;28;9718;-80
2024/02/21 11:47:17;;;;;;;;;15.00;13.50;;;;;;;;5089217;28;9606;-75
2024/02/21 11:49:46;;;;;;;;;12.00;10.00;;;;;;;;5088225;28;10364;-76
2024/02/21 11:52:15;;;;;;;;;13.00;10.25;;;;;;;;5089126;28;9540;-78
2024/02/21 11:54:42;;;;;;;;;10.00;10.00;;;;;;;;5091270;28;9573;-79
2024/02/21 11:57:13;;;;;;;;;12.75;12.75;;;;;;;;5093838;28;9663;-78
2024/02/21 11:59:41;;;;;;;;;12.50;11.00;;;;;;;;5083616;28;9600;-79
2024/02/21 12:02:09;;;;;;;;;10.00;10.00;;;;;;;;5094666;28;10197;-81
2024/02/21 12:04:37;;;;;;;;;16.00;13.50;;;;;;;;5094613;28;9714;-77
2024/02/21 12:07:07;;;;;;;;;13.00;10.00;;;;;;;;5094308;28;9480;-79
2024/02/21 12:09:36;;;;;;;;;13.25;13.25;;;;;;;;5095275;28;9490;-82
2024/02/21 12:12:05;;;;;;;;;8.25;8.25;;;;;;;;5094625;28;10369;-76
2024/02/21 12:14:34;;;;;;;;;11.25;11.25;;;;;;;;5088965;28;9674;-79
2024/02/21 12:17:04;;;;;;;;;10.67;9.00;;;;;;;;5086547;28;9450;-79
2024/02/21 12:19:32;;;;;;;;;10.50;9.50;;;;;;;;5087520;28;9452;-74
2024/02/21 12:22:01;;;;;;;;;9.75;9.75;;;;;;;;5087603;28;10279;-79
2024/02/21 12:24:29;;;;;;;;;8.50;8.25;;;;;;;;5087443;28;9383;-80
2024/02/21 12:26:58;;;;;;;;;10.00;10.00;;;;;;;;5087771;28;9548;-81
2024/02/21 12:29:26;;;;;;;;;13.25;11.50;;;;;;;;5087505;28;9717;-79
2024/02/21 12:31:54;;;;;;;;;11.50;11.50;;;;;;;;5086905;28;9620;-80
2024/02/21 12:34:24;;;;;;;;;14.50;10.00;;;;;;;;5087294;28;9602;-77
2024/02/21 12:36:51;;;;;;;;;9.00;9.00;;;;;;;;5085787;28;9471;-79
2024/02/21 12:39:19;;;;;;;;;14.75;10.00;;;;;;;;5087687;28;9517;-78
2024/02/21 12:41:46;;;;;;;;;10.50;8.50;;;;;;;;5088158;28;9527;-79
2024/02/21 12:44:13;;;;;;;;;10.75;10.00;;;;;;;;5089596;28;9480;-79
2024/02/21 12:46:41;;;;;;;;;13.25;11.25;;;;;;;;5090076;28;9482;-77
2024/02/21 12:49:08;;;;;;;;;11.75;10.00;;;;;;;;5088754;28;9462;-77
2024/02/21 12:51:46;;;;;;;;;9.50;9.50;;;;;;;;5087303;28;9361;-79
2024/02/21 12:54:13;;;;;;;;;8.25;8.25;;;;;;;;5087733;28;9466;-80
2024/02/21 12:56:41;;;;;;;;;11.75;9.50;;;;;;;;5087401;28;9630;-80
2024/02/21 12:59:09;;;;;;;;;13.33;11.00;;;;;;;;5085904;28;9488;-77
2024/02/21 13:01:36;;;;;;;;;9.33;9.33;;;;;;;;5087356;28;9440;-78
2024/02/21 13:04:04;;;;;;;;;14.25;9.00;;;;;;;;5087256;28;9467;-78
2024/02/21 13:06:31;;;;;;;;;7.33;7.00;;;;;;;;5097784;28;9479;-78
2024/02/21 13:09:03;;;;;;;;;8.67;7.00;;;;;;;;5087778;28;9349;-80
2024/02/21 13:11:30;;;;;;;;;10.67;9.00;;;;;;;;5087289;28;9269;-78
2024/02/21 13:13:58;;;;;;;;;7.00;7.00;;;;;;;;5086213;28;9390;-82
2024/02/21 13:16:26;;;;;;;;;9.00;9.00;;;;;;;;5087504;28;9322;-79
2024/02/21 13:18:53;;;;;;;;;8.67;7.00;;;;;;;;5087965;28;9335;-75
2024/02/21 13:21:21;;;;;;;;;6.33;6.00;;;;;;;;5091232;28;9357;-76
2024/02/21 13:23:48;;;;;;;;;7.00;6.33;;;;;;;;5090392;28;9302;-81
2024/02/21 13:26:16;;;;;;;;;10.00;8.67;;;;;;;;5091446;28;9289;-74
2024/02/21 13:28:44;;;;;;;;;5.00;5.00;;;;;;;;5094006;28;9194;-79
2024/02/21 13:31:14;;;;;;;;;6.33;6.00;;;;;;;;5084629;28;9117;-79
2024/02/21 13:33:41;;;;;;;;;10.00;7.00;;;;;;;;5081015;28;9289;-81
2024/02/21 13:36:09;;;;;;;;;1.00;1.00;;;;;;;;5091677;28;9235;-77
2024/02/21 13:38:38;;;;;;;;;8.00;8.00;;;;;;;;5091837;28;9217;-77
2024/02/21 13:41:06;;;;;;;;;7.00;7.00;;;;;;;;5092518;28;9310;-76
2024/02/21 13:43:35;;;;;;;;;7.33;6.67;;;;;;;;5094121;28;9386;-78
2024/02/21 13:46:04;;;;;;;;;8.00;8.00;;;;;;;;5095021;28;9240;-80
2024/02/21 13:48:33;;;;;;;;;6.33;6.33;;;;;;;;5096028;28;9175;-80
2024/02/21 13:51:02;;;;;;;;;7.67;7.67;;;;;;;;5096315;28;9187;-80
2024/02/21 13:53:31;;;;;;;;;6.00;6.00;;;;;;;;5096507;28;9366;-83
2024/02/21 13:55:59;;;;;;;;;8.67;8.67;;;;;;;;5091150;28;9304;-81
2024/02/21 13:58:26;;;;;;;;;7.00;5.67;;;;;;;;5095438;28;9265;-78
2024/02/21 14:00:56;;;;;;;;;11.67;8.00;;;;;;;;5096157;28;9274;-77
2024/02/21 14:03:23;;;;;;;;;7.67;7.33;;;;;;;;5090708;28;9308;-77
2024/02/21 14:05:51;;;;;;;;;7.67;7.67;;;;;;;;5089395;28;9400;-77
2024/02/21 14:08:18;;;;;;;;;9.25;7.25;;;;;;;;5091439;28;9325;-78
2024/02/21 14:10:45;;;;;;;;;8.50;8.00;;;;;;;;5091966;28;9385;-76
2024/02/21 14:13:17;;;;;;;;;9.50;9.50;;;;;;;;5090657;28;10435;-78
2024/02/21 14:15:49;;;;;;;;;12.25;10.00;;;;;;;;5079183;28;9611;-81
2024/02/21 14:18:18;;;;;;;;;7.00;7.00;;;;;;;;5089721;28;9725;-77
2024/02/21 14:20:48;;;;;;;;;13.75;11.25;;;;;;;;5079911;28;9636;-77
2024/02/21 14:23:18;;;;;;;;;13.25;12.50;;;;;;;;5089510;28;9767;-78
2024/02/21 14:25:51;;;;;;;;;8.00;8.00;;;;;;;;5091083;28;9795;-77
2024/02/21 14:28:20;;;;;;;;;14.25;12.75;;;;;;;;5093003;28;10010;-76
2024/02/21 14:30:49;;;;;;;;;12.50;12.50;;;;;;;;5090420;28;9867;-77